Time;durP1;ratioP1;P1;durP2;ratioP2;P2;SDS_P1;SDS_P2;PMS_P1;PMS_P2;Temp;Humidity;BMP_temperature;BMP_pressure;BME280_temperature;BME280_humidity;BME280_pressure;Samples;Min_cycle;Max_cycle;Signal;HPM_P1;HPM_P2
2023/08/08 00:00:37;;;;;;;19.42;2.65;;;;;;;17.24;100.00;98575.22;5090362;28;20483;-74
2023/08/08 00:03:03;;;;;;;27.88;3.00;;;;;;;17.29;100.00;98564.28;5090475;28;20024;-75
2023/08/08 00:05:29;;;;;;;11.85;1.88;;;;;;;17.25;100.00;98569.50;5090338;28;20043;-74
2023/08/08 00:07:54;;;;;;;15.10;2.22;;;;;;;17.18;100.00;98568.25;5091714;28;20464;-74
2023/08/08 00:10:19;;;;;;;23.38;2.50;;;;;;;17.13;100.00;98558.28;5090306;28;20036;-75
2023/08/08 00:12:45;;;;;;;14.65;2.15;;;;;;;17.04;100.00;98552.72;5091958;28;20608;-75
2023/08/08 00:15:10;;;;;;;21.30;2.50;;;;;;;17.03;100.00;98558.44;5090085;28;20024;-74
2023/08/08 00:17:35;;;;;;;20.08;2.33;;;;;;;17.10;100.00;98564.31;5107356;28;20028;-74
2023/08/08 00:20:01;;;;;;;17.75;2.42;;;;;;;17.07;100.00;98562.19;5090040;28;20063;-74
2023/08/08 00:22:27;;;;;;;20.10;2.47;;;;;;;16.98;100.00;98556.59;5091559;28;20544;-74
2023/08/08 00:24:52;;;;;;;15.00;2.20;;;;;;;16.81;100.00;98551.72;5090031;28;20449;-75
2023/08/08 00:27:17;;;;;;;33.53;3.88;;;;;;;16.99;100.00;98563.69;5090160;28;20401;-75
2023/08/08 00:29:43;;;;;;;23.98;3.17;;;;;;;16.99;100.00;98562.88;5107275;28;20031;-74
2023/08/08 00:32:08;;;;;;;26.33;2.88;;;;;;;16.91;100.00;98556.97;5106132;28;20028;-75
2023/08/08 00:34:33;;;;;;;17.98;2.08;;;;;;;16.86;100.00;98548.94;5092710;28;20034;-74
2023/08/08 00:36:59;;;;;;;16.20;2.67;;;;;;;16.87;100.00;98558.69;5091376;28;20481;-75
2023/08/08 00:39:24;;;;;;;21.33;2.67;;;;;;;16.91;100.00;98556.19;5107095;28;20056;-75
2023/08/08 00:41:50;;;;;;;16.67;2.17;;;;;;;16.94;100.00;98549.34;5091235;28;20119;-75
2023/08/08 00:44:15;;;;;;;16.67;2.78;;;;;;;17.00;100.00;98546.25;5089781;28;20040;-75
2023/08/08 00:46:40;;;;;;;18.90;2.53;;;;;;;17.00;100.00;98538.13;5089957;28;20032;-75
2023/08/08 00:49:06;;;;;;;22.13;3.00;;;;;;;16.88;100.00;98532.31;5089903;28;20568;-75
2023/08/08 00:51:32;;;;;;;21.35;2.83;;;;;;;16.90;100.00;98543.72;5090865;28;20060;-75
2023/08/08 00:53:58;;;;;;;26.67;3.78;;;;;;;16.79;100.00;98542.28;5091544;28;20035;-75
2023/08/08 00:56:24;;;;;;;25.45;3.20;;;;;;;16.76;100.00;98527.38;5107482;28;20407;-76
2023/08/08 00:58:50;;;;;;;20.05;2.63;;;;;;;16.77;100.00;98542.53;5106926;28;20028;-75
2023/08/08 01:01:17;;;;;;;17.55;3.10;;;;;;;16.68;100.00;98538.84;5108631;28;20035;-75
2023/08/08 01:03:43;;;;;;;18.58;2.20;;;;;;;16.64;100.00;98522.34;5091639;28;20024;-76
2023/08/08 01:06:11;;;;;;;15.73;1.98;;;;;;;16.73;100.00;98522.50;5090613;28;20032;-76
2023/08/08 01:08:46;;;;;;;22.92;2.58;;;;;;;16.74;100.00;98536.88;5091163;28;20020;-75
2023/08/08 01:11:15;;;;;;;22.30;2.55;;;;;;;16.66;100.00;98517.44;5092428;28;20051;-76
2023/08/08 01:13:41;;;;;;;21.70;2.78;;;;;;;16.90;100.00;98533.66;5089604;28;20142;-76
2023/08/08 01:16:07;;;;;;;19.58;2.65;;;;;;;16.77;100.00;98539.03;5089674;28;20398;-76
2023/08/08 01:18:33;;;;;;;22.15;2.72;;;;;;;16.70;100.00;98519.56;5089998;28;20176;-76
2023/08/08 01:20:59;;;;;;;21.23;3.25;;;;;;;16.78;100.00;98532.47;5075755;28;20540;-76
2023/08/08 01:23:37;;;;;;;18.30;2.45;;;;;;;16.75;100.00;98519.50;5090735;28;20382;-76
2023/08/08 01:26:03;;;;;;;18.10;2.15;;;;;;;16.74;100.00;98532.25;5089659;28;20518;-76
2023/08/08 01:28:28;;;;;;;17.50;2.35;;;;;;;16.78;100.00;98530.56;5090792;28;20093;-76
2023/08/08 01:30:54;;;;;;;25.55;3.10;;;;;;;16.79;100.00;98529.50;5106598;28;20032;-76
2023/08/08 01:33:19;;;;;;;19.40;2.45;;;;;;;16.75;100.00;98525.72;5091038;28;20031;-76
2023/08/08 01:35:50;;;;;;;20.23;2.70;;;;;;;16.69;100.00;98518.75;5093538;28;20097;-76
2023/08/08 01:38:33;;;;;;;22.90;2.55;;;;;;;16.76;100.00;98532.00;5092461;28;20059;-76
2023/08/08 01:40:59;;;;;;;25.33;2.83;;;;;;;16.75;100.00;98524.94;5094633;28;20038;-76
2023/08/08 01:43:26;;;;;;;16.42;2.33;;;;;;;16.71;100.00;98524.69;5091311;28;20506;-76
2023/08/08 01:45:52;;;;;;;23.98;2.88;;;;;;;16.65;100.00;98526.69;5094400;28;20027;-76
2023/08/08 01:48:18;;;;;;;19.98;2.45;;;;;;;16.67;100.00;98529.91;5076305;28;20368;-76
2023/08/08 01:50:44;;;;;;;9.88;1.50;;;;;;;16.53;100.00;98522.81;5092695;28;20503;-76
2023/08/08 01:53:09;;;;;;;17.25;2.38;;;;;;;16.52;100.00;98527.41;5092979;28;20528;-76
2023/08/08 01:55:35;;;;;;;15.10;2.20;;;;;;;16.55;100.00;98512.44;5109992;28;20490;-76
2023/08/08 01:58:00;;;;;;;14.95;1.75;;;;;;;16.47;100.00;98521.25;5093124;28;20032;-77
2023/08/08 02:00:26;;;;;;;19.25;2.78;;;;;;;16.54;100.00;98506.19;5110537;28;20024;-75
2023/08/08 02:02:51;;;;;;;20.08;3.45;;;;;;;16.63;100.00;98517.22;5092846;28;20044;-75
2023/08/08 02:05:16;;;;;;;25.45;2.85;;;;;;;16.59;100.00;98514.28;5093002;28;20395;-75
2023/08/08 02:07:42;;;;;;;21.75;2.95;;;;;;;16.57;100.00;98513.75;5092955;28;20441;-75
2023/08/08 02:10:07;;;;;;;28.95;4.13;;;;;;;16.51;100.00;98509.50;5094285;28;20595;-74
2023/08/08 02:12:33;;;;;;;23.90;2.75;;;;;;;16.38;100.00;98492.03;5092317;28;20032;-75
2023/08/08 02:14:58;;;;;;;21.60;2.95;;;;;;;16.59;100.00;98499.91;5092600;28;20149;-75
2023/08/08 02:17:25;;;;;;;19.45;2.03;;;;;;;16.32;100.00;98479.66;5092251;28;20595;-75
2023/08/08 02:19:51;;;;;;;23.17;2.80;;;;;;;16.44;100.00;98503.66;5093813;28;20066;-75
2023/08/08 02:22:17;;;;;;;25.50;2.80;;;;;;;16.54;100.00;98500.78;5092487;28;20047;-75
2023/08/08 02:24:43;;;;;;;19.90;2.85;;;;;;;16.38;100.00;98483.09;5092284;28;20032;-75
2023/08/08 02:27:09;;;;;;;22.15;2.53;;;;;;;16.38;100.00;98481.19;5093377;28;20069;-75
2023/08/08 02:29:34;;;;;;;28.10;3.63;;;;;;;16.53;100.00;98495.66;5092459;28;20079;-74
2023/08/08 02:32:00;;;;;;;22.40;3.10;;;;;;;16.45;100.00;98488.97;5093613;28;20039;-75
2023/08/08 02:34:25;;;;;;;28.75;3.60;;;;;;;16.47;100.00;98481.34;5092088;28;20494;-75
2023/08/08 02:36:50;;;;;;;25.35;4.00;;;;;;;16.37;100.00;98481.50;5108960;28;20412;-75
2023/08/08 02:39:16;;;;;;;28.65;3.60;;;;;;;16.50;100.00;98483.47;5091619;28;20032;-74
2023/08/08 02:41:42;;;;;;;26.60;3.33;;;;;;;16.42;100.00;98479.53;5108734;28;20104;-74
2023/08/08 02:44:08;;;;;;;19.67;2.30;;;;;;;16.29;100.00;98482.13;5075300;28;20036;-75
2023/08/08 02:46:33;;;;;;;22.60;2.97;;;;;;;16.23;100.00;98477.91;5093173;28;20098;-75
2023/08/08 02:48:58;;;;;;;18.42;2.92;;;;;;;16.12;100.00;98448.19;5091863;28;20121;-75
2023/08/08 02:51:24;;;;;;;25.23;3.13;;;;;;;16.28;100.00;98480.53;5091801;28;20052;-75
2023/08/08 02:53:49;;;;;;;21.17;3.05;;;;;;;16.36;100.00;98477.19;5091554;28;20036;-75
2023/08/08 02:56:14;;;;;;;28.10;2.90;;;;;;;16.32;100.00;98457.94;5091076;28;20534;-75
2023/08/08 02:58:40;;;;;;;24.40;2.75;;;;;;;16.29;100.00;98474.84;5109241;28;20466;-75
2023/08/08 03:01:05;;;;;;;22.58;2.83;;;;;;;16.22;100.00;98466.22;5091866;28;20032;-75
2023/08/08 03:03:30;;;;;;;22.73;2.88;;;;;;;16.28;100.00;98446.06;5111399;28;20055;-75
2023/08/08 03:05:56;;;;;;;21.00;2.60;;;;;;;16.15;100.00;98449.50;5092426;28;20032;-75
2023/08/08 03:08:21;;;;;;;19.48;3.00;;;;;;;16.13;100.00;98449.81;5110857;28;20115;-75
2023/08/08 03:10:47;;;;;;;19.80;2.40;;;;;;;16.22;100.00;98441.81;5074616;28;20402;-75
2023/08/08 03:13:12;;;;;;;24.67;2.85;;;;;;;16.20;100.00;98446.75;5092744;28;20032;-75
2023/08/08 03:15:37;;;;;;;19.95;2.60;;;;;;;16.21;100.00;98429.34;5108483;28;20568;-75
2023/08/08 03:18:03;;;;;;;20.85;2.60;;;;;;;16.27;100.00;98428.19;5091257;28;20039;-75
2023/08/08 03:20:28;;;;;;;29.98;4.05;;;;;;;16.22;100.00;98447.22;5092618;28;20036;-74
2023/08/08 03:22:54;;;;;;;23.15;3.08;;;;;;;16.16;100.00;98438.38;5091277;28;20081;-75
2023/08/08 03:25:19;;;;;;;17.88;2.85;;;;;;;16.08;100.00;98440.94;5091253;28;20039;-75
2023/08/08 03:27:44;;;;;;;26.73;2.90;;;;;;;16.16;100.00;98443.81;5108177;28;20032;-74
2023/08/08 03:30:10;;;;;;;21.92;3.00;;;;;;;16.22;100.00;98452.66;5092551;28;20488;-75
2023/08/08 03:32:36;;;;;;;25.10;2.67;;;;;;;16.24;100.00;98446.94;5107364;28;20032;-75
2023/08/08 03:35:01;;;;;;;21.23;3.10;;;;;;;16.22;100.00;98458.09;5074004;28;20036;-75
2023/08/08 03:37:27;;;;;;;25.75;3.20;;;;;;;16.24;100.00;98450.47;5073900;28;20478;-75
2023/08/08 03:39:52;;;;;;;15.80;3.05;;;;;;;16.21;100.00;98459.19;5073885;28;20082;-75
2023/08/08 03:42:17;;;;;;;26.52;3.10;;;;;;;16.19;100.00;98448.66;5090747;28;20032;-75
2023/08/08 03:44:45;;;;;;;15.80;2.20;;;;;;;16.27;100.00;98439.03;5091190;28;20038;-75
2023/08/08 03:47:10;;;;;;;17.17;2.90;;;;;;;16.23;100.00;98438.00;5092089;28;20108;-75
2023/08/08 03:49:35;;;;;;;14.27;2.22;;;;;;;16.10;100.00;98433.31;5090556;28;20119;-75
2023/08/08 03:52:01;;;;;;;20.20;2.30;;;;;;;16.17;100.00;98422.91;5090352;28;20060;-75
2023/08/08 03:54:26;;;;;;;15.30;2.15;;;;;;;16.03;100.00;98419.31;5090487;28;20036;-75
2023/08/08 03:56:51;;;;;;;17.13;2.17;;;;;;;16.02;100.00;98404.13;5107683;28;20085;-75
2023/08/08 03:59:18;;;;;;;19.05;2.60;;;;;;;16.04;100.00;98410.88;5074039;28;20052;-75
2023/08/08 04:01:44;;;;;;;19.63;2.83;;;;;;;16.00;100.00;98411.75;5107652;28;20032;-75
2023/08/08 04:04:09;;;;;;;16.00;2.40;;;;;;;15.96;100.00;98403.41;5108068;28;20463;-75
2023/08/08 04:06:34;;;;;;;16.77;2.13;;;;;;;16.04;100.00;98399.22;5095863;28;20414;-75
2023/08/08 04:09:00;;;;;;;20.52;3.03;;;;;;;16.18;100.00;98409.03;5108052;28;20047;-75
2023/08/08 04:11:26;;;;;;;17.38;2.53;;;;;;;16.11;100.00;98408.59;5092566;28;20024;-74
2023/08/08 04:13:51;;;;;;;18.67;2.67;;;;;;;16.24;100.00;98417.09;5091109;28;20081;-75
2023/08/08 04:16:17;;;;;;;17.05;2.40;;;;;;;16.12;100.00;98410.19;5091400;28;20372;-74
2023/08/08 04:18:42;;;;;;;20.50;2.53;;;;;;;16.18;100.00;98408.22;5091232;28;20039;-75
2023/08/08 04:21:08;;;;;;;17.15;2.97;;;;;;;16.03;100.00;98403.03;5092615;28;20082;-75
2023/08/08 04:23:33;;;;;;;14.45;1.80;;;;;;;16.04;100.00;98386.47;5092656;28;20031;-75
2023/08/08 04:25:58;;;;;;;17.55;2.70;;;;;;;16.06;100.00;98388.88;5090997;28;20035;-75
2023/08/08 04:28:24;;;;;;;17.75;2.88;;;;;;;15.92;100.00;98367.91;5091636;28;20119;-75
2023/08/08 04:30:49;;;;;;;23.15;2.70;;;;;;;16.02;100.00;98388.66;5090173;28;20521;-75
2023/08/08 04:33:15;;;;;;;20.98;2.38;;;;;;;16.14;100.00;98385.50;5090192;28;20024;-74
2023/08/08 04:35:40;;;;;;;23.77;2.95;;;;;;;16.20;100.00;98387.03;5090270;28;20024;-75
2023/08/08 04:38:06;;;;;;;18.15;2.72;;;;;;;16.19;100.00;98377.28;5090198;28;20081;-74
2023/08/08 04:40:31;;;;;;;20.88;2.72;;;;;;;16.18;100.00;98367.53;5072971;28;20446;-75
2023/08/08 04:42:56;;;;;;;15.80;2.45;;;;;;;16.08;100.00;98354.13;5107261;28;20078;-75
2023/08/08 04:45:22;;;;;;;13.23;1.88;;;;;;;16.12;100.00;98360.56;5090792;28;20055;-74
2023/08/08 04:47:47;;;;;;;19.10;2.42;;;;;;;16.13;100.00;98346.72;5090230;28;20028;-74
2023/08/08 04:50:13;;;;;;;20.02;3.08;;;;;;;16.12;100.00;98342.38;5090274;28;20621;-74
2023/08/08 04:52:38;;;;;;;17.48;2.42;;;;;;;16.06;100.00;98340.88;5090010;28;20131;-74
2023/08/08 04:55:05;;;;;;;24.42;2.55;;;;;;;16.01;100.00;98353.69;5091381;28;20028;-75
2023/08/08 04:57:30;;;;;;;16.77;2.22;;;;;;;15.98;100.00;98336.09;5089820;28;20028;-74
2023/08/08 04:59:56;;;;;;;16.15;1.83;;;;;;;16.08;100.00;98340.56;5091145;28;20050;-75
2023/08/08 05:02:21;;;;;;;11.48;1.65;;;;;;;15.91;100.00;98344.59;5089539;28;20035;-75
2023/08/08 05:04:47;;;;;;;14.75;2.33;;;;;;;16.01;100.00;98340.13;5091055;28;20040;-74
2023/08/08 05:07:12;;;;;;;21.25;2.88;;;;;;;16.00;100.00;98327.69;5106488;28;20032;-74
2023/08/08 05:09:37;;;;;;;13.75;1.90;;;;;;;15.95;100.00;98329.34;5089640;28;20135;-75
2023/08/08 05:12:03;;;;;;;13.45;1.70;;;;;;;15.83;100.00;98306.53;5091249;28;20111;-75
2023/08/08 05:14:29;;;;;;;16.40;2.10;;;;;;;16.01;100.00;98323.88;5091060;28;20032;-75
2023/08/08 05:16:54;;;;;;;17.05;1.58;;;;;;;15.95;100.00;98323.13;5089664;28;20127;-75
2023/08/08 05:19:19;;;;;;;9.73;1.50;;;;;;;15.78;100.00;98296.53;5092627;28;20035;-75
2023/08/08 05:21:45;;;;;;;10.13;1.80;;;;;;;15.87;100.00;98300.19;5093713;28;20028;-75
2023/08/08 05:24:10;;;;;;;13.73;1.80;;;;;;;15.98;100.00;98293.50;5110480;28;20020;-75
2023/08/08 05:26:36;;;;;;;14.32;1.77;;;;;;;16.08;100.00;98299.88;5114039;28;20036;-75
2023/08/08 05:29:02;;;;;;;12.57;1.45;;;;;;;15.92;100.00;98289.25;5095309;28;20036;-75
2023/08/08 05:31:28;;;;;;;8.63;1.42;;;;;;;15.97;100.00;98285.69;5094758;28;20028;-75
2023/08/08 05:33:53;;;;;;;14.27;1.67;;;;;;;15.98;100.00;98279.94;5097004;28;20063;-75
2023/08/08 05:36:19;;;;;;;12.18;2.13;;;;;;;15.97;100.00;98272.13;5096510;28;20119;-75
2023/08/08 05:38:44;;;;;;;9.20;0.95;;;;;;;15.86;100.00;98266.06;5110181;28;20512;-75
2023/08/08 05:41:09;;;;;;;12.88;1.63;;;;;;;15.98;100.00;98263.66;5093380;28;20115;-75
2023/08/08 05:43:36;;;;;;;10.10;1.30;;;;;;;15.85;100.00;98263.63;5093764;28;20031;-75
2023/08/08 05:46:02;;;;;;;16.23;1.83;;;;;;;15.75;100.00;98237.47;5095943;28;20036;-75
2023/08/08 05:48:27;;;;;;;10.20;1.83;;;;;;;15.92;100.00;98256.72;5094681;28;20057;-75
2023/08/08 05:50:52;;;;;;;12.75;1.63;;;;;;;15.79;100.00;98243.13;5094042;28;20044;-76
2023/08/08 05:53:18;;;;;;;16.10;1.95;;;;;;;15.87;100.00;98256.81;5094104;28;20082;-75
2023/08/08 05:55:43;;;;;;;9.48;1.25;;;;;;;15.77;100.00;98245.34;5092856;28;20028;-75
2023/08/08 05:58:09;;;;;;;15.85;1.70;;;;;;;15.73;100.00;98245.13;5092652;28;20067;-75
2023/08/08 06:00:34;;;;;;;13.85;1.90;;;;;;;15.72;100.00;98244.28;5092669;28;20032;-75
2023/08/08 06:03:00;;;;;;;16.13;2.00;;;;;;;15.77;100.00;98223.63;5093988;28;20020;-75
2023/08/08 06:05:25;;;;;;;11.07;1.85;;;;;;;15.71;100.00;98220.19;5092829;28;20055;-75
2023/08/08 06:07:51;;;;;;;8.25;1.38;;;;;;;15.72;100.00;98229.94;5093924;28;20020;-75
2023/08/08 06:10:16;;;;;;;11.10;1.58;;;;;;;15.74;100.00;98225.03;5094079;28;20028;-75
2023/08/08 06:12:42;;;;;;;12.00;2.17;;;;;;;15.72;100.00;98221.81;5109579;28;20448;-76
2023/08/08 06:15:08;;;;;;;14.75;1.50;;;;;;;15.72;100.00;98209.03;5077341;28;20506;-76
2023/08/08 06:17:33;;;;;;;10.48;1.73;;;;;;;15.73;100.00;98210.69;5096241;28;20028;-75
2023/08/08 06:19:59;;;;;;;19.40;2.40;;;;;;;15.84;100.00;98188.81;5093708;28;20078;-75
2023/08/08 06:22:25;;;;;;;13.32;2.10;;;;;;;15.83;100.00;98198.84;5092354;28;20035;-75
2023/08/08 06:24:50;;;;;;;14.85;2.03;;;;;;;15.83;100.00;98198.06;5109344;28;20081;-75
2023/08/08 06:27:16;;;;;;;12.48;1.92;;;;;;;15.80;100.00;98179.66;5092508;28;20148;-75
2023/08/08 06:29:42;;;;;;;15.80;2.33;;;;;;;15.76;100.00;98176.75;5092211;28;20032;-75
2023/08/08 06:32:07;;;;;;;15.85;2.15;;;;;;;15.66;100.00;98157.88;5092036;28;20565;-75
2023/08/08 06:34:33;;;;;;;15.75;1.75;;;;;;;15.61;100.00;98163.41;5092269;28;20035;-76
2023/08/08 06:36:58;;;;;;;13.98;2.58;;;;;;;15.78;100.00;98155.53;5092238;28;20038;-75
2023/08/08 06:39:23;;;;;;;15.68;1.95;;;;;;;15.86;100.00;98175.75;5075002;28;20028;-76
2023/08/08 06:41:49;;;;;;;17.65;3.00;;;;;;;15.90;100.00;98153.16;5091901;28;20493;-75
2023/08/08 06:44:14;;;;;;;9.10;1.50;;;;;;;15.71;100.00;98111.75;5074877;28;20411;-76
2023/08/08 06:46:40;;;;;;;13.98;2.42;;;;;;;15.69;100.00;98113.94;5091930;28;20101;-76
2023/08/08 06:49:06;;;;;;;19.48;1.65;;;;;;;15.85;100.00;98134.28;5091503;28;20071;-75
2023/08/08 06:51:32;;;;;;;15.45;2.70;;;;;;;15.76;100.00;98103.53;5091759;28;20060;-75
2023/08/08 06:53:58;;;;;;;18.50;2.40;;;;;;;15.95;100.00;98106.16;5091491;28;20039;-75
2023/08/08 06:56:26;;;;;;;10.93;2.05;;;;;;;15.77;100.00;98096.22;5091672;28;20468;-76
2023/08/08 06:58:51;;;;;;;11.45;1.30;;;;;;;15.68;100.00;98080.63;5091821;28;20028;-76
2023/08/08 07:01:17;;;;;;;15.65;2.22;;;;;;;15.87;100.00;98096.03;5091581;28;20028;-76
2023/08/08 07:03:43;;;;;;;11.93;1.83;;;;;;;15.73;100.00;98072.41;5091328;28;20475;-77
2023/08/08 07:06:09;;;;;;;26.45;3.38;;;;;;;15.72;100.00;98076.19;5091495;28;20036;-77
2023/08/08 07:08:35;;;;;;;12.20;1.33;;;;;;;15.56;100.00;98072.13;5091232;28;20079;-77
2023/08/08 07:11:00;;;;;;;20.77;2.72;;;;;;;15.65;100.00;98083.91;5091429;28;20034;-76
2023/08/08 07:13:26;;;;;;;21.67;3.20;;;;;;;15.81;100.00;98091.78;5108372;28;20070;-77
2023/08/08 07:15:51;;;;;;;19.77;2.92;;;;;;;16.00;100.00;98102.56;5108547;28;20038;-77
2023/08/08 07:18:17;;;;;;;11.07;2.35;;;;;;;15.73;100.00;98079.75;5091025;28;20067;-76
2023/08/08 07:20:42;;;;;;;21.52;2.53;;;;;;;15.81;100.00;98089.88;5091442;28;20081;-77
2023/08/08 07:23:08;;;;;;;22.33;3.22;;;;;;;15.74;100.00;98079.44;5074605;28;20251;-77
2023/08/08 07:25:34;;;;;;;7.82;1.45;;;;;;;15.79;100.00;98085.84;5090968;28;20541;-77
2023/08/08 07:27:59;;;;;;;16.90;2.85;;;;;;;15.86;100.00;98078.94;5108242;28;20028;-77
2023/08/08 07:30:25;;;;;;;15.52;2.65;;;;;;;15.80;100.00;98074.72;5092359;28;20028;-77
2023/08/08 07:32:51;;;;;;;18.08;2.63;;;;;;;15.90;100.00;98081.88;5092397;28;20039;-76
2023/08/08 07:35:17;;;;;;;14.77;2.63;;;;;;;15.89;100.00;98075.66;5107794;28;20074;-77
2023/08/08 07:37:43;;;;;;;8.85;1.38;;;;;;;15.81;100.00;98078.22;5091306;28;20039;-76
2023/08/08 07:40:19;;;;;;;17.38;2.45;;;;;;;16.12;100.00;98083.84;5073979;28;20437;-77
2023/08/08 07:42:45;;;;;;;15.52;2.38;;;;;;;15.89;100.00;98067.50;5092315;28;20020;-77
2023/08/08 07:45:11;;;;;;;18.17;2.47;;;;;;;15.86;100.00;98062.69;5092268;28;20097;-77
2023/08/08 07:47:36;;;;;;;19.40;2.78;;;;;;;15.85;100.00;98055.63;5090611;28;20028;-76
2023/08/08 07:50:02;;;;;;;18.52;2.10;;;;;;;15.68;100.00;98056.22;5090894;28;20060;-76
2023/08/08 07:52:27;;;;;;;8.55;1.73;;;;;;;15.87;100.00;98067.00;5090745;28;20048;-77
2023/08/08 07:54:53;;;;;;;17.10;2.70;;;;;;;15.79;100.00;98070.38;5090874;28;20028;-76
2023/08/08 07:57:18;;;;;;;21.08;2.72;;;;;;;16.04;100.00;98079.16;5090672;28;20092;-76
2023/08/08 07:59:44;;;;;;;28.60;3.80;;;;;;;15.96;100.00;98078.75;5090592;28;20035;-76
2023/08/08 08:02:09;;;;;;;23.95;3.63;;;;;;;15.89;100.00;98082.94;5091310;28;20047;-77
2023/08/08 08:04:35;;;;;;;18.10;2.35;;;;;;;15.74;100.00;98071.28;5095330;28;20543;-76
2023/08/08 08:07:00;;;;;;;13.68;1.77;;;;;;;15.67;100.00;98094.50;5111931;28;20398;-77
2023/08/08 08:09:26;;;;;;;17.20;2.47;;;;;;;15.70;100.00;98091.97;5095721;28;20043;-76
2023/08/08 08:11:51;;;;;;;30.67;4.45;;;;;;;15.94;100.00;98108.06;5095287;28;20032;-76
2023/08/08 08:14:16;;;;;;;20.92;3.15;;;;;;;15.78;100.00;98085.06;5094449;28;20077;-76
2023/08/08 08:16:42;;;;;;;28.67;3.70;;;;;;;15.87;100.00;98104.94;5093911;28;20028;-77
2023/08/08 08:19:07;;;;;;;32.72;4.15;;;;;;;15.71;100.00;98092.78;5091996;28;20127;-76
2023/08/08 08:21:32;;;;;;;38.03;4.47;;;;;;;15.87;100.00;98115.00;5092433;28;20436;-76
2023/08/08 08:23:58;;;;;;;23.95;3.53;;;;;;;15.74;100.00;98100.31;5109025;28;20031;-77
2023/08/08 08:26:23;;;;;;;29.95;3.53;;;;;;;15.57;100.00;98116.31;5075118;28;20043;-76
2023/08/08 08:28:48;;;;;;;27.10;3.85;;;;;;;15.57;100.00;98119.84;5092765;28;20042;-78
2023/08/08 08:31:14;;;;;;;28.85;3.90;;;;;;;15.70;100.00;98127.22;5092374;28;20081;-77
2023/08/08 08:33:39;;;;;;;17.67;2.83;;;;;;;15.62;100.00;98138.69;5092653;28;20123;-77
2023/08/08 08:36:05;;;;;;;26.60;3.83;;;;;;;15.71;100.00;98141.59;5092409;28;20123;-77
2023/08/08 08:38:30;;;;;;;27.17;3.35;;;;;;;15.58;100.00;98145.81;5091645;28;20045;-77
2023/08/08 08:40:56;;;;;;;29.00;3.72;;;;;;;15.74;100.00;98143.69;5092337;28;20032;-77
2023/08/08 08:43:22;;;;;;;20.33;2.85;;;;;;;15.56;100.00;98158.84;5093361;28;20094;-77
2023/08/08 08:45:51;;;;;;;22.95;3.10;;;;;;;15.56;100.00;98160.78;5091971;28;20043;-77
2023/08/08 08:48:19;;;;;;;22.20;3.70;;;;;;;15.52;100.00;98155.13;5092918;28;20111;-77
2023/08/08 08:50:47;;;;;;;27.73;3.10;;;;;;;15.33;100.00;98101.00;5091200;28;20048;-77
2023/08/08 08:53:13;;;;;;;26.70;3.90;;;;;;;15.27;100.00;98130.06;5109551;28;20066;-76
2023/08/08 08:55:39;;;;;;;23.83;2.85;;;;;;;15.46;100.00;98167.16;5112613;28;20501;-77
2023/08/08 08:58:05;;;;;;;27.90;3.42;;;;;;;15.19;100.00;98155.09;5096037;28;20032;-77
2023/08/08 09:00:31;;;;;;;20.35;3.15;;;;;;;15.20;100.00;98145.09;5112859;28;20032;-77
2023/08/08 09:02:57;;;;;;;24.05;3.50;;;;;;;15.19;100.00;98149.69;5096304;28;20543;-78
2023/08/08 09:05:25;;;;;;;25.63;3.17;;;;;;;15.41;100.00;98167.25;5097320;28;20486;-78
2023/08/08 09:07:51;;;;;;;31.60;3.47;;;;;;;15.27;100.00;98175.34;5097493;28;20039;-77
2023/08/08 09:10:17;;;;;;;21.42;3.03;;;;;;;15.33;100.00;98155.19;5094527;28;20440;-77
2023/08/08 09:12:44;;;;;;;26.77;2.63;;;;;;;15.18;100.00;98163.53;5095442;28;20039;-77
2023/08/08 09:15:10;;;;;;;21.27;3.08;;;;;;;15.23;100.00;98169.69;5078250;28;20044;-77
2023/08/08 09:17:39;;;;;;;16.27;2.53;;;;;;;15.06;100.00;98161.25;5096105;28;20111;-77
2023/08/08 09:20:05;;;;;;;22.75;3.10;;;;;;;15.14;100.00;98120.00;5096028;28;20024;-78
2023/08/08 09:22:31;;;;;;;24.83;3.20;;;;;;;15.40;100.00;98193.56;5098047;28;20028;-78
2023/08/08 09:24:56;;;;;;;16.08;2.85;;;;;;;15.36;100.00;98186.28;5113198;28;20514;-78
2023/08/08 09:27:22;;;;;;;18.70;2.85;;;;;;;15.33;100.00;98182.28;5095729;28;20023;-78
2023/08/08 09:29:48;;;;;;;9.18;1.70;;;;;;;15.15;100.00;98193.91;5113187;28;20032;-78
2023/08/08 09:32:14;;;;;;;10.30;1.65;;;;;;;14.94;100.00;98180.66;5095915;28;20036;-77
2023/08/08 09:34:42;;;;;;;17.38;3.25;;;;;;;14.83;100.00;98154.00;5080109;28;20089;-76
2023/08/08 09:37:08;;;;;;;12.50;2.58;;;;;;;15.22;100.00;98194.34;5096091;28;20052;-78
2023/08/08 09:39:33;;;;;;;19.95;2.75;;;;;;;15.23;100.00;98201.38;5095333;28;20035;-78
2023/08/08 09:42:01;;;;;;;12.98;2.70;;;;;;;15.16;100.00;98219.91;5096868;28;20452;-78
2023/08/08 09:44:29;;;;;;;19.17;2.55;;;;;;;15.21;100.00;98203.59;5095705;28;20068;-78
2023/08/08 09:46:55;;;;;;;19.60;2.83;;;;;;;15.31;100.00;98213.47;5112526;28;20158;-78
2023/08/08 09:49:22;;;;;;;11.68;2.42;;;;;;;15.04;100.00;98198.69;5111865;28;20027;-79
2023/08/08 09:51:48;;;;;;;17.13;2.60;;;;;;;15.29;100.00;98230.00;5112199;28;20044;-78
2023/08/08 09:54:14;;;;;;;18.33;2.45;;;;;;;15.30;100.00;98237.06;5099804;28;20024;-78
2023/08/08 09:56:40;;;;;;;19.92;2.88;;;;;;;15.24;100.00;98232.81;5101184;28;20397;-77
2023/08/08 09:59:07;;;;;;;16.05;1.83;;;;;;;15.17;100.00;98235.06;5113874;28;20028;-78
2023/08/08 10:01:32;;;;;;;10.13;1.85;;;;;;;15.34;100.00;98254.34;5097162;28;20034;-78
2023/08/08 10:03:59;;;;;;;19.88;2.50;;;;;;;15.38;100.00;98254.56;5079255;28;20111;-78
2023/08/08 10:06:24;;;;;;;17.52;2.22;;;;;;;15.26;100.00;98252.25;5113514;28;20082;-78
2023/08/08 10:08:50;;;;;;;25.88;2.60;;;;;;;15.14;100.00;98243.78;5097978;28;20487;-78
2023/08/08 10:11:16;;;;;;;20.77;2.65;;;;;;;15.33;100.00;98260.84;5096666;28;20024;-78
2023/08/08 10:13:49;;;;;;;14.65;2.35;;;;;;;15.36;100.00;98262.97;5080041;28;20036;-78
2023/08/08 10:16:16;;;;;;;10.40;1.92;;;;;;;15.19;100.00;98274.28;5095430;28;20024;-77
2023/08/08 10:18:42;;;;;;;7.57;1.27;;;;;;;15.12;100.00;98279.28;5098822;28;20032;-78
2023/08/08 10:21:09;;;;;;;13.45;1.95;;;;;;;15.19;100.00;98266.16;5112642;28;20153;-77
2023/08/08 10:23:39;;;;;;;16.45;2.80;;;;;;;15.22;100.00;98278.34;5080533;28;20106;-78
2023/08/08 10:26:17;;;;;;;18.75;2.75;;;;;;;15.38;100.00;98273.53;5096279;28;20047;-77
2023/08/08 10:28:53;;;;;;;23.30;2.65;;;;;;;15.13;100.00;98280.91;5110378;28;20028;-78
2023/08/08 10:31:22;;;;;;;12.52;2.28;;;;;;;15.02;100.00;98258.53;5093906;28;20076;-78
2023/08/08 10:33:47;;;;;;;14.88;2.30;;;;;;;15.28;100.00;98285.31;5094950;28;20052;-78
2023/08/08 10:36:13;;;;;;;13.05;2.83;;;;;;;15.43;100.00;98303.25;5094079;28;20029;-78
2023/08/08 10:38:44;;;;;;;14.95;2.03;;;;;;;15.16;100.00;98291.13;5092579;28;20035;-77
2023/08/08 10:41:15;;;;;;;16.35;1.98;;;;;;;15.17;100.00;98286.53;5096364;28;20035;-78
2023/08/08 10:43:55;;;;;;;13.55;2.10;;;;;;;14.99;100.00;98286.19;5095720;28;20028;-77
2023/08/08 10:46:32;;;;;;;18.08;2.45;;;;;;;14.97;100.00;98299.25;5094886;28;20035;-79
2023/08/08 10:49:01;;;;;;;11.90;1.73;;;;;;;15.14;100.00;98322.34;5093236;28;20027;-76
2023/08/08 10:51:46;;;;;;;12.57;1.65;;;;;;;15.10;100.00;98294.19;5092828;28;20572;-75
2023/08/08 10:54:27;;;;;;;14.20;2.22;;;;;;;15.15;100.00;98316.63;5098632;28;20070;-77
2023/08/08 10:56:58;;;;;;;16.30;2.08;;;;;;;15.08;100.00;98305.31;5094374;28;20031;-78
2023/08/08 10:59:35;;;;;;;19.95;2.42;;;;;;;15.24;100.00;98336.56;5096998;28;20023;-78
2023/08/08 11:02:01;;;;;;;17.38;2.50;;;;;;;15.01;100.00;98310.28;5092073;28;20507;-75
2023/08/08 11:04:26;;;;;;;18.23;2.00;;;;;;;15.24;100.00;98335.75;5112040;28;20336;-75
2023/08/08 11:06:55;;;;;;;16.33;2.45;;;;;;;15.00;100.00;98311.41;5094298;28;20497;-78
2023/08/08 11:09:21;;;;;;;16.85;2.10;;;;;;;15.13;100.00;98356.75;5097013;28;20034;-78
2023/08/08 11:11:47;;;;;;;11.05;1.73;;;;;;;15.03;100.00;98360.38;5096074;28;20095;-78